Time;durP1;ratioP1;P1;durP2;ratioP2;P2;SDS_P1;SDS_P2;PMS_P1;PMS_P2;Temp;Humidity;BMP_temperature;BMP_pressure;BME280_temperature;BME280_humidity;BME280_pressure;Samples;Min_cycle;Max_cycle;Signal;HPM_P1;HPM_P2
2022/03/12 00:00:35;;;;;;;29.75;16.38;;;13.60;2099.20;;;;;;5070244;28;20021;-55
2022/03/12 00:03:01;;;;;;;22.10;12.48;;;13.70;2124.80;;;;;;5070548;28;20033;-55
2022/03/12 00:05:29;;;;;;;26.47;14.57;;;13.60;2099.20;;;;;;5070373;28;20025;-55
2022/03/12 00:07:55;;;;;;;35.53;19.42;;;38.40;2099.20;;;;;;5070717;28;20134;-55
2022/03/12 00:10:22;;;;;;;21.02;13.20;;;13.60;2099.20;;;;;;5070645;28;20498;-55
2022/03/12 00:12:48;;;;;;;20.67;12.32;;;13.70;2073.60;;;;;;5070371;28;20024;-55
2022/03/12 00:15:14;;;;;;;20.23;10.48;;;13.70;2073.60;;;;;;5070335;28;20051;-55
2022/03/12 00:17:45;;;;;;;28.25;12.75;;;38.40;2099.20;;;;;;5070377;28;20031;-58
2022/03/12 00:20:18;;;;;;;25.63;13.73;;;38.40;2073.60;;;;;;5070313;28;20119;-56
2022/03/12 00:22:48;;;;;;;17.73;12.40;;;13.60;2073.60;;;;;;5070411;28;20055;-55
2022/03/12 00:25:15;;;;;;;37.65;22.27;;;13.60;2048.00;;;;;;5070365;28;20036;-56
2022/03/12 00:27:42;;;;;;;24.85;15.05;;;13.60;2048.00;;;;;;5070258;28;20020;-59
2022/03/12 00:30:10;;;;;;;24.23;13.93;;;13.70;2073.60;;;;;;5069966;28;20471;-59
2022/03/12 00:32:37;;;;;;;20.50;11.88;;;13.70;2048.00;;;;;;5070472;28;20035;-60
2022/03/12 00:35:08;;;;;;;22.20;11.90;;;38.40;2073.60;;;;;;5070303;28;20060;-59
2022/03/12 00:37:35;;;;;;;16.77;11.35;;;38.40;2073.60;;;;;;5070188;28;20032;-59
2022/03/12 00:40:00;;;;;;;19.08;10.32;;;13.70;2048.00;;;;;;5069971;28;20123;-59
2022/03/12 00:42:26;;;;;;;21.20;11.48;;;13.70;2048.00;;;;;;5070210;28;20157;-59
2022/03/12 00:44:52;;;;;;;13.15;8.18;;;13.60;2048.00;;;;;;5070374;28;20100;-59
2022/03/12 00:47:18;;;;;;;17.65;10.23;;;13.70;2048.00;;;;;;5069842;28;20025;-59
2022/03/12 00:49:44;;;;;;;18.90;9.95;;;38.40;2048.00;;;;;;5070152;28;20112;-59
2022/03/12 00:52:10;;;;;;;14.40;7.80;;;38.40;2022.40;;;;;;5070098;28;20048;-59
2022/03/12 00:54:36;;;;;;;15.65;8.23;;;38.40;2022.40;;;;;;5069761;28;20488;-57
2022/03/12 00:57:02;;;;;;;16.05;9.10;;;38.40;2022.40;;;;;;5070079;28;20082;-59
2022/03/12 00:59:28;;;;;;;17.60;8.82;;;38.40;2022.40;;;;;;5069785;28;20028;-57
2022/03/12 01:01:54;;;;;;;14.95;9.18;;;38.50;2073.60;;;;;;5070136;28;20032;-58
2022/03/12 01:04:19;;;;;;;15.05;8.25;;;38.50;2048.00;;;;;;5069853;28;20028;-59
2022/03/12 01:06:46;;;;;;;16.00;8.40;;;38.50;2048.00;;;;;;5069704;28;20025;-56
2022/03/12 01:09:13;;;;;;;17.13;9.20;;;38.50;2022.40;;;;;;5070022;28;20016;-59
2022/03/12 01:11:40;;;;;;;19.30;10.13;;;38.40;2022.40;;;;;;5069605;28;20035;-59
2022/03/12 01:14:07;;;;;;;17.48;8.80;;;13.70;1996.80;;;;;;5069714;28;20058;-56
2022/03/12 01:16:33;;;;;;;15.77;8.63;;;38.40;1996.80;;;;;;5069666;28;20573;-59
2022/03/12 01:18:59;;;;;;;22.33;11.20;;;38.60;2048.00;;;;;;5069786;28;20055;-57
2022/03/12 01:21:26;;;;;;;20.27;10.80;;;38.60;2073.60;;;;;;5069900;28;20032;-59
2022/03/12 01:23:52;;;;;;;20.65;10.13;;;38.70;2073.60;;;;;;5069923;28;20029;-60
2022/03/12 01:26:20;;;;;;;23.23;11.13;;;38.70;2099.20;;;;;;5069473;28;20036;-59
2022/03/12 01:28:47;;;;;;;16.98;10.63;;;38.70;2099.20;;;;;;5069593;28;20054;-58
2022/03/12 01:31:13;;;;;;;29.50;12.35;;;38.90;2150.40;;;;;;5069697;28;20139;-56
2022/03/12 01:33:39;;;;;;;23.67;12.45;;;39.10;2176.00;;;;;;5073127;28;20494;-55
2022/03/12 01:36:06;;;;;;;26.95;14.25;;;39.20;2176.00;;;;;;5073569;28;20068;-60
2022/03/12 01:38:34;;;;;;;24.85;14.35;;;39.10;2201.60;;;;;;5073497;28;20025;-59
2022/03/12 01:41:03;;;;;;;27.83;15.98;;;39.10;2201.60;;;;;;5073182;28;20073;-59
2022/03/12 01:43:34;;;;;;;23.63;13.63;;;39.30;2201.60;;;;;;5073242;28;20031;-56
2022/03/12 01:46:01;;;;;;;28.17;14.05;;;64.00;2201.60;;;;;;5073284;28;20032;-59
2022/03/12 01:48:28;;;;;;;25.10;12.90;;;39.30;2201.60;;;;;;5073182;28;20021;-55
2022/03/12 01:50:54;;;;;;;28.05;15.13;;;39.20;2201.60;;;;;;5073277;28;20024;-58
2022/03/12 01:53:23;;;;;;;32.13;16.55;;;64.00;2201.60;;;;;;5072901;28;20106;-59
2022/03/12 01:55:49;;;;;;;26.77;15.23;;;64.20;2201.60;;;;;;5072838;28;20037;-58
2022/03/12 01:58:14;;;;;;;22.37;13.63;;;64.20;2201.60;;;;;;5073183;28;20024;-55
2022/03/12 02:00:44;;;;;;;23.97;12.30;;;64.20;2201.60;;;;;;5072766;28;20028;-55
2022/03/12 02:03:11;;;;;;;21.10;11.63;;;64.50;2201.60;;;;;;5072930;28;20074;-56
2022/03/12 02:05:37;;;;;;;26.00;15.80;;;64.60;2201.60;;;;;;5072652;28;20027;-55
2022/03/12 02:08:04;;;;;;;25.50;14.30;;;64.50;2201.60;;;;;;5072851;28;20103;-55
2022/03/12 02:10:29;;;;;;;44.90;23.00;;;64.40;2201.60;;;;;;5072661;28;20047;-59
2022/03/12 02:12:55;;;;;;;23.63;15.77;;;64.40;2201.60;;;;;;5072927;28;20463;-54
2022/03/12 02:15:22;;;;;;;79.07;35.67;;;64.50;2201.60;;;;;;5073079;28;20036;-59
2022/03/12 02:17:51;;;;;;;63.70;31.03;;;64.60;2201.60;;;;;;5072568;28;20074;-59
2022/03/12 02:20:18;;;;;;;61.13;30.03;;;64.50;2201.60;;;;;;5072589;28;20028;-55
2022/03/12 02:22:46;;;;;;;66.67;32.50;;;64.40;2201.60;;;;;;5072580;28;20028;-56
2022/03/12 02:25:15;;;;;;;55.37;27.53;;;64.40;2201.60;;;;;;5072459;28;20028;-56
2022/03/12 02:27:41;;;;;;;30.93;16.00;;;64.30;2201.60;;;;;;5072356;28;20091;-55
2022/03/12 02:30:08;;;;;;;35.67;18.47;;;64.30;2201.60;;;;;;5072079;28;20044;-59
2022/03/12 02:32:35;;;;;;;16.93;9.53;;;64.30;2201.60;;;;;;5072637;28;20044;-58
2022/03/12 02:35:01;;;;;;;20.53;10.60;;;39.00;2201.60;;;;;;5072411;28;20028;-59
2022/03/12 02:37:32;;;;;;;29.30;13.97;;;64.20;2176.00;;;;;;5072130;28;20059;-59
2022/03/12 02:40:01;;;;;;;18.03;10.47;;;64.20;2176.00;;;;;;5070940;28;20119;-59
2022/03/12 02:42:28;;;;;;;17.67;9.53;;;64.10;2176.00;;;;;;5072118;28;20029;-56
2022/03/12 02:44:54;;;;;;;29.13;14.80;;;64.00;2150.40;;;;;;5070990;28;20378;-57
2022/03/12 02:47:31;;;;;;;42.00;19.63;;;64.10;2176.00;;;;;;5072230;28;20032;-56
2022/03/12 02:50:02;;;;;;;34.00;18.63;;;64.10;2201.60;;;;;;5072044;28;20100;-56
2022/03/12 02:52:29;;;;;;;30.83;16.50;;;64.20;2201.60;;;;;;5071814;28;20031;-59
2022/03/12 02:54:57;;;;;;;24.73;13.80;;;64.20;2201.60;;;;;;5071823;28;20028;-57
2022/03/12 02:57:25;;;;;;;25.83;15.90;;;64.30;2201.60;;;;;;5072362;28;20033;-59
2022/03/12 02:59:53;;;;;;;25.63;15.10;;;64.40;2201.60;;;;;;5071986;28;20033;-59
2022/03/12 03:02:25;;;;;;;20.07;11.00;;;64.50;2201.60;;;;;;5071763;28;20060;-58
2022/03/12 03:04:51;;;;;;;16.00;9.10;;;64.50;2201.60;;;;;;5071877;28;20497;-58
2022/03/12 03:07:18;;;;;;;11.50;7.10;;;64.40;2201.60;;;;;;5071519;28;20033;-56
2022/03/12 03:09:43;;;;;;;12.33;7.27;;;64.40;2201.60;;;;;;5071867;28;20576;-56
2022/03/12 03:12:11;;;;;;;13.80;8.47;;;64.20;2176.00;;;;;;5071737;28;20060;-60
2022/03/12 03:14:45;;;;;;;10.90;6.50;;;64.30;2176.00;;;;;;5071569;28;20028;-55
2022/03/12 03:17:14;;;;;;;19.73;8.10;;;64.30;2150.40;;;;;;5071585;28;20035;-59
2022/03/12 03:19:41;;;;;;;13.43;6.90;;;64.30;2150.40;;;;;;5071352;28;20535;-54
2022/03/12 03:22:07;;;;;;;12.43;7.53;;;64.30;2150.40;;;;;;5071295;28;20028;-55
2022/03/12 03:24:33;;;;;;;14.38;6.90;;;64.30;2150.40;;;;;;5071522;28;20047;-57
2022/03/12 03:27:00;;;;;;;17.03;7.80;;;64.40;2176.00;;;;;;5071208;28;20020;-55
2022/03/12 03:29:29;;;;;;;11.90;8.27;;;64.30;2150.40;;;;;;5071198;28;20073;-56
2022/03/12 03:31:56;;;;;;;11.20;7.03;;;64.30;2150.40;;;;;;5071266;28;20053;-56
2022/03/12 03:34:23;;;;;;;19.13;8.97;;;64.30;2124.80;;;;;;5071472;28;20017;-60
2022/03/12 03:36:49;;;;;;;14.03;7.73;;;64.40;2150.40;;;;;;5070940;28;20037;-59
2022/03/12 03:39:16;;;;;;;14.85;8.95;;;64.30;2124.80;;;;;;5071256;28;20021;-59
2022/03/12 03:41:42;;;;;;;21.53;10.47;;;64.40;2124.80;;;;;;5071403;28;20364;-59
2022/03/12 03:44:08;;;;;;;16.20;9.70;;;64.30;2124.80;;;;;;5070945;28;20498;-59
2022/03/12 03:46:35;;;;;;;20.40;10.30;;;64.30;2124.80;;;;;;5071146;28;20082;-55
2022/03/12 03:49:02;;;;;;;24.27;11.60;;;64.30;2124.80;;;;;;5070888;28;20027;-55
2022/03/12 03:51:28;;;;;;;23.57;12.57;;;64.30;2124.80;;;;;;5069167;28;20494;-54
2022/03/12 03:53:54;;;;;;;23.90;12.43;;;64.40;2150.40;;;;;;5070909;28;20111;-56
2022/03/12 03:56:20;;;;;;;16.33;10.10;;;64.40;2176.00;;;;;;5070502;28;20123;-59
2022/03/12 03:58:47;;;;;;;19.83;10.83;;;64.50;2201.60;;;;;;5070565;28;20028;-57
2022/03/12 04:01:17;;;;;;;16.10;11.10;;;64.80;2201.60;;;;;;5070901;28;20029;-55
2022/03/12 04:03:48;;;;;;;27.27;13.40;;;64.90;2201.60;;;;;;5070852;28;20070;-58
2022/03/12 04:06:22;;;;;;;18.03;11.73;;;64.90;2201.60;;;;;;5070674;28;20048;-54
2022/03/12 04:08:48;;;;;;;21.07;11.00;;;89.60;2201.60;;;;;;5070382;28;20025;-57
2022/03/12 04:11:19;;;;;;;24.30;12.23;;;64.90;2201.60;;;;;;5070969;28;20033;-54
2022/03/12 04:13:46;;;;;;;22.00;12.47;;;89.60;2201.60;;;;;;5070776;28;20036;-59
2022/03/12 04:16:13;;;;;;;20.03;10.17;;;89.80;2176.00;;;;;;5070358;28;20094;-60
2022/03/12 04:18:41;;;;;;;28.10;12.00;;;90.00;2176.00;;;;;;5070413;28;20029;-55
2022/03/12 04:21:09;;;;;;;21.23;13.50;;;89.90;2176.00;;;;;;5070549;28;20081;-56
2022/03/12 04:23:35;;;;;;;41.30;17.80;;;89.80;2176.00;;;;;;5070317;28;20032;-55
2022/03/12 04:26:02;;;;;;;29.50;14.90;;;89.90;2176.00;;;;;;5070444;28;20024;-55
2022/03/12 04:28:33;;;;;;;19.73;10.33;;;89.90;2176.00;;;;;;5070287;28;20024;-54
2022/03/12 04:31:03;;;;;;;17.37;11.73;;;89.90;2176.00;;;;;;5069955;28;20056;-59
2022/03/12 04:33:29;;;;;;;20.50;12.10;;;89.90;2176.00;;;;;;5070219;28;20103;-59
2022/03/12 04:35:57;;;;;;;25.43;13.90;;;89.90;2176.00;;;;;;5070245;28;20024;-57
2022/03/12 04:38:23;;;;;;;18.47;13.50;;;89.90;2176.00;;;;;;5070395;28;20029;-60
2022/03/12 04:40:49;;;;;;;22.80;10.80;;;89.90;2176.00;;;;;;5070136;28;20383;-55
2022/03/12 04:43:15;;;;;;;22.57;13.83;;;90.00;2176.00;;;;;;5070324;28;20363;-59
2022/03/12 04:45:46;;;;;;;18.93;11.07;;;90.00;2176.00;;;;;;5070218;28;20426;-59
2022/03/12 04:48:23;;;;;;;16.07;11.20;;;90.10;2176.00;;;;;;5070244;28;20099;-59
2022/03/12 04:50:51;;;;;;;21.70;11.50;;;90.10;2176.00;;;;;;5070258;28;20017;-59
2022/03/12 04:53:18;;;;;;;24.70;16.10;;;90.10;2176.00;;;;;;5069953;28;20461;-55
2022/03/12 04:55:45;;;;;;;18.57;11.20;;;90.00;2176.00;;;;;;5069781;28;20068;-56
2022/03/12 04:58:12;;;;;;;26.40;12.87;;;90.00;2176.00;;;;;;5070231;28;20021;-58
2022/03/12 05:00:39;;;;;;;26.17;13.37;;;90.00;2176.00;;;;;;5069528;28;20029;-59
2022/03/12 05:03:09;;;;;;;23.33;9.53;;;90.20;2176.00;;;;;;5069053;28;20430;-55
2022/03/12 05:05:43;;;;;;;18.83;10.17;;;90.10;2176.00;;;;;;5070070;28;20029;-59
2022/03/12 05:08:13;;;;;;;23.83;11.60;;;90.00;2176.00;;;;;;5072689;28;20059;-56
2022/03/12 05:10:39;;;;;;;22.63;14.13;;;90.00;2176.00;;;;;;5073940;28;20020;-60
2022/03/12 05:13:05;;;;;;;33.20;25.07;;;89.90;2176.00;;;;;;5074006;28;20029;-55
2022/03/12 05:15:37;;;;;;;30.10;19.90;;;89.80;2176.00;;;;;;5074134;28;20037;-55
2022/03/12 05:18:07;;;;;;;26.60;16.13;;;89.70;2176.00;;;;;;5074043;28;20071;-60
2022/03/12 05:20:36;;;;;;;33.37;19.27;;;89.70;2176.00;;;;;;5073999;28;20431;-55
2022/03/12 05:23:04;;;;;;;42.57;17.93;;;89.80;2176.00;;;;;;5073788;28;20100;-59
2022/03/12 05:25:31;;;;;;;58.67;31.00;;;89.80;2176.00;;;;;;5073577;28;20382;-59
2022/03/12 05:27:57;;;;;;;27.30;13.63;;;89.70;2176.00;;;;;;5073604;28;20512;-55
2022/03/12 05:30:23;;;;;;;39.03;18.83;;;89.90;2176.00;;;;;;5073380;28;20049;-60
2022/03/12 05:32:50;;;;;;;18.70;11.30;;;90.00;2176.00;;;;;;5073546;28;20028;-60
2022/03/12 05:35:17;;;;;;;20.53;9.97;;;89.90;2176.00;;;;;;5073509;28;20036;-57
2022/03/12 05:37:45;;;;;;;19.07;11.40;;;90.20;2176.00;;;;;;5073557;28;20032;-55
2022/03/12 05:40:11;;;;;;;21.37;12.13;;;90.20;2176.00;;;;;;5073580;28;20024;-58
2022/03/12 05:42:37;;;;;;;26.47;13.27;;;90.30;2176.00;;;;;;5073380;28;20021;-58
2022/03/12 05:45:09;;;;;;;23.93;14.20;;;90.30;2176.00;;;;;;5073741;28;20021;-55
2022/03/12 05:47:37;;;;;;;26.13;14.33;;;90.10;2176.00;;;;;;5073360;28;20056;-55
2022/03/12 05:50:03;;;;;;;28.40;15.97;;;90.00;2176.00;;;;;;5073479;28;20025;-58
2022/03/12 05:52:29;;;;;;;31.17;16.00;;;90.20;2176.00;;;;;;5073175;28;20483;-55
2022/03/12 05:54:55;;;;;;;24.97;12.63;;;90.20;2176.00;;;;;;5073259;28;20066;-55
2022/03/12 05:57:21;;;;;;;22.53;12.40;;;90.20;2176.00;;;;;;5073240;28;20036;-60
2022/03/12 05:59:48;;;;;;;18.93;10.90;;;90.10;2176.00;;;;;;5072982;28;20025;-58
2022/03/12 06:02:14;;;;;;;17.63;10.53;;;90.00;2176.00;;;;;;5073154;28;20036;-56
2022/03/12 06:04:40;;;;;;;19.90;11.87;;;89.90;2176.00;;;;;;5073126;28;20035;-55
2022/03/12 06:07:06;;;;;;;18.47;10.77;;;89.90;2176.00;;;;;;5072914;28;20033;-55
2022/03/12 06:09:31;;;;;;;20.57;13.80;;;64.90;2201.60;;;;;;5073003;28;20108;-55
2022/03/12 06:11:58;;;;;;;19.80;11.73;;;64.80;2201.60;;;;;;5072701;28;20050;-56
2022/03/12 06:14:24;;;;;;;21.73;10.20;;;64.60;2201.60;;;;;;5072915;28;20028;-58
2022/03/12 06:16:50;;;;;;;17.73;9.77;;;64.60;2201.60;;;;;;5072674;28;20051;-59
2022/03/12 06:19:21;;;;;;;18.97;11.47;;;64.50;2176.00;;;;;;5072344;28;20029;-56
2022/03/12 06:21:48;;;;;;;46.50;29.50;;;64.50;2176.00;;;;;;5072570;28;20021;-59
2022/03/12 06:24:15;;;;;;;39.07;24.33;;;38.50;2073.60;;;;;;5072599;28;20028;-56
2022/03/12 06:26:43;;;;;;;43.50;30.33;;;25.70;1843.20;;;;;;5072476;28;20028;-56
2022/03/12 06:29:13;;;;;;;61.97;38.22;;;52.00;1689.60;;;;;;5072322;28;20033;-56
2022/03/12 06:31:40;;;;;;;33.10;21.33;;;102.70;1536.00;;;;;;5072351;28;20067;-56
2022/03/12 06:34:07;;;;;;;25.60;17.58;;;128.60;1459.20;;;;;;5072398;28;20493;-56
2022/03/12 06:36:34;;;;;;;27.27;20.35;;;154.40;1356.80;;;;;;5072457;28;20048;-56
2022/03/12 06:39:01;;;;;;;18.40;13.35;;;179.60;1331.20;;;;;;5072099;28;20059;-57
2022/03/12 06:41:27;;;;;;;16.00;12.45;;;205.50;1254.40;;;;;;5072063;28;20474;-59
2022/03/12 06:43:54;;;;;;;56.63;40.58;;;205.70;1228.80;;;;;;5072463;28;20090;-59
2022/03/12 06:46:21;;;;;;;59.72;42.25;;;231.00;1152.00;;;;;;5072253;28;20033;-59
2022/03/12 06:48:47;;;;;;;45.83;33.38;;;231.00;1152.00;;;;;;5072103;28;20024;-56
2022/03/12 06:51:13;;;;;;;45.25;33.13;;;256.80;1100.80;;;;;;5072288;28;20055;-56
2022/03/12 06:53:40;;;;;;;32.92;24.58;;;281.70;1100.80;;;;;;5071729;28;20033;-56
2022/03/12 06:56:09;;;;;;;22.48;15.98;;;307.30;1100.80;;;;;;5071755;28;20044;-57
2022/03/12 06:58:36;;;;;;;22.58;15.70;;;307.70;1049.60;;;;;;5071847;28;20450;-59
2022/03/12 07:01:02;;;;;;;22.55;16.55;;;307.50;1049.60;;;;;;5071925;28;20036;-56
2022/03/12 07:03:28;;;;;;;24.20;17.58;;;307.30;1075.20;;;;;;5071747;28;20565;-58
2022/03/12 07:05:53;;;;;;;23.42;20.40;;;307.40;1126.40;;;;;;5072051;28;20104;-57
2022/03/12 07:08:20;;;;;;;29.08;21.73;;;307.40;1075.20;;;;;;5071681;28;20086;-58
2022/03/12 07:10:47;;;;;;;76.03;54.30;;;307.40;1100.80;;;;;;5071423;28;20060;-56
2022/03/12 07:13:13;;;;;;;40.25;31.65;;;307.30;1100.80;;;;;;5071935;28;20425;-57
2022/03/12 07:15:39;;;;;;;50.13;36.55;;;307.90;1075.20;;;;;;5071444;28;20050;-60
2022/03/12 07:18:05;;;;;;;36.58;29.80;;;333.70;1049.60;;;;;;5071791;28;20024;-56
2022/03/12 07:20:30;;;;;;;58.90;42.38;;;358.40;1024.00;;;;;;5071499;28;20478;-56
2022/03/12 07:22:56;;;;;;;31.80;26.45;;;358.60;1024.00;;;;;;5071277;28;20482;-57
2022/03/12 07:25:25;;;;;;;46.47;35.45;;;359.10;972.80;;;;;;5071709;28;20025;-58
2022/03/12 07:27:52;;;;;;;76.07;57.78;;;384.80;947.20;;;;;;5071709;28;20382;-56
2022/03/12 07:30:18;;;;;;;46.05;35.72;;;384.00;947.20;;;;;;5070147;28;20031;-57
2022/03/12 07:32:45;;;;;;;53.08;40.78;;;359.20;947.20;;;;;;5071438;28;20036;-59
2022/03/12 07:35:12;;;;;;;28.88;24.58;;;384.50;921.60;;;;;;5071256;28;20478;-59
2022/03/12 07:37:39;;;;;;;36.83;27.60;;;384.70;921.60;;;;;;5070940;28;20028;-58
2022/03/12 07:40:06;;;;;;;44.72;34.63;;;410.20;896.00;;;;;;5071074;28;20390;-57
2022/03/12 07:42:32;;;;;;;42.08;32.10;;;435.60;870.40;;;;;;5071372;28;20032;-56
2022/03/12 07:44:58;;;;;;;68.82;52.50;;;461.00;870.40;;;;;;5071040;28;20016;-56
2022/03/12 07:47:24;;;;;;;44.60;39.83;;;486.90;793.60;;;;;;5071321;28;20485;-57
2022/03/12 07:49:50;;;;;;;25.10;19.92;;;512.90;742.40;;;;;;5071107;28;20029;-54
2022/03/12 07:52:16;;;;;;;134.57;111.70;;;538.40;716.80;;;;;;5070911;28;20383;-54
2022/03/12 07:54:42;;;;;;;49.33;41.47;;;563.80;742.40;;;;;;5070764;28;20021;-55
2022/03/12 07:57:08;;;;;;;23.88;20.75;;;588.80;716.80;;;;;;5070683;28;20170;-57
2022/03/12 07:59:35;;;;;;;26.27;22.83;;;564.00;716.80;;;;;;5070493;28;20032;-55
2022/03/12 08:02:02;;;;;;;18.05;14.65;;;589.40;691.20;;;;;;5070941;28;20115;-55
2022/03/12 08:04:30;;;;;;;24.48;19.27;;;614.70;640.00;;;;;;5070508;28;20024;-55
2022/03/12 08:07:00;;;;;;;25.42;21.33;;;614.60;640.00;;;;;;5070457;28;20025;-56
2022/03/12 08:09:25;;;;;;;22.00;19.52;;;640.00;640.00;;;;;;5070556;28;20498;-55
2022/03/12 08:11:52;;;;;;;26.55;23.75;;;640.00;640.00;;;;;;5069208;28;20107;-58
2022/03/12 08:14:22;;;;;;;31.73;19.75;;;640.00;614.40;;;;;;5068988;28;20381;-59
2022/03/12 08:16:50;;;;;;;38.90;29.40;;;640.00;614.40;;;;;;5067930;28;20033;-58
2022/03/12 08:19:17;;;;;;;28.35;24.85;;;614.90;640.00;;;;;;5066740;28;20055;-57
2022/03/12 08:21:44;;;;;;;14.00;12.07;;;640.00;614.40;;;;;;5069225;28;20024;-59
2022/03/12 08:24:10;;;;;;;17.73;15.40;;;640.00;588.80;;;;;;5068564;28;20025;-58
2022/03/12 08:26:41;;;;;;;22.08;19.77;;;640.30;588.80;;;;;;5066328;28;20162;-58
2022/03/12 08:29:10;;;;;;;21.23;19.10;;;640.40;563.20;;;;;;5069097;28;20036;-56
2022/03/12 08:31:37;;;;;;;30.80;25.23;;;640.10;588.80;;;;;;5068902;28;20811;-56
2022/03/12 08:34:03;;;;;;;20.77;18.58;;;640.20;563.20;;;;;;5069095;28;20103;-55
2022/03/12 08:36:29;;;;;;;24.80;22.15;;;640.90;563.20;;;;;;5068746;28;20033;-57
2022/03/12 08:38:55;;;;;;;108.95;97.43;;;665.60;563.20;;;;;;5068916;28;20032;-59
2022/03/12 08:41:21;;;;;;;36.88;30.02;;;665.90;563.20;;;;;;5068789;28;20025;-56
2022/03/12 08:43:49;;;;;;;36.47;32.15;;;665.60;563.20;;;;;;5068779;28;20157;-58
2022/03/12 08:46:15;;;;;;;24.90;21.88;;;640.20;537.60;;;;;;5069038;28;20089;-55
2022/03/12 08:48:41;;;;;;;43.45;37.95;;;640.90;537.60;;;;;;5066041;28;20066;-59
2022/03/12 08:51:07;;;;;;;47.70;43.45;;;640.20;563.20;;;;;;5068505;28;20482;-56
2022/03/12 08:53:34;;;;;;;29.30;26.65;;;640.00;563.20;;;;;;5068385;28;20451;-59
2022/03/12 08:56:01;;;;;;;14.30;12.77;;;615.10;563.20;;;;;;5068633;28;20068;-56
2022/03/12 08:58:29;;;;;;;14.43;12.38;;;614.60;614.40;;;;;;5068857;28;20021;-55
2022/03/12 09:00:55;;;;;;;17.70;15.57;;;614.50;614.40;;;;;;5068838;28;20038;-56
2022/03/12 09:03:22;;;;;;;17.67;15.55;;;589.50;614.40;;;;;;5068706;28;20016;-53
2022/03/12 09:05:49;;;;;;;17.65;15.90;;;614.70;614.40;;;;;;5068436;28;20029;-53
2022/03/12 09:08:15;;;;;;;18.77;15.80;;;589.50;614.40;;;;;;5068583;28;20079;-54
2022/03/12 09:10:42;;;;;;;22.17;18.45;;;588.90;614.40;;;;;;5068713;28;20048;-54
2022/03/12 09:13:12;;;;;;;20.85;17.90;;;563.60;665.60;;;;;;5068472;28;20021;-54
2022/03/12 09:15:38;;;;;;;18.33;16.23;;;538.30;665.60;;;;;;5068368;28;20036;-55
2022/03/12 09:18:03;;;;;;;26.58;20.92;;;512.20;691.20;;;;;;5068831;28;20379;-55
2022/03/12 09:20:29;;;;;;;33.38;28.38;;;461.60;716.80;;;;;;5068330;28;20453;-54
2022/03/12 09:22:55;;;;;;;28.20;24.08;;;435.60;742.40;;;;;;5068635;28;20033;-55
2022/03/12 09:25:21;;;;;;;30.45;23.98;;;384.50;768.00;;;;;;5068586;28;20827;-53
2022/03/12 09:27:47;;;;;;;31.77;22.52;;;358.80;819.20;;;;;;5068257;28;20107;-55
2022/03/12 09:30:13;;;;;;;26.90;20.67;;;333.70;870.40;;;;;;5068479;28;20024;-57
2022/03/12 09:32:39;;;;;;;30.63;21.80;;;333.20;896.00;;;;;;5069152;28;20104;-54
2022/03/12 09:35:06;;;;;;;25.10;17.25;;;308.10;870.40;;;;;;5069049;28;20060;-55
2022/03/12 09:37:32;;;;;;;17.65;11.40;;;307.50;947.20;;;;;;5069501;28;20024;-54
2022/03/12 09:39:59;;;;;;;18.65;11.40;;;307.40;947.20;;;;;;5069089;28;20509;-54
2022/03/12 09:42:28;;;;;;;20.83;13.57;;;282.50;947.20;;;;;;5068820;28;20033;-55
2022/03/12 09:44:54;;;;;;;18.05;10.93;;;281.80;896.00;;;;;;5068041;28;20017;-56
2022/03/12 09:47:20;;;;;;;22.00;13.95;;;281.60;947.20;;;;;;5069533;28;20028;-55
2022/03/12 09:49:46;;;;;;;22.30;16.13;;;281.70;947.20;;;;;;5069471;28;20036;-55
2022/03/12 09:52:11;;;;;;;29.63;14.77;;;256.70;896.00;;;;;;5069415;28;20463;-57
2022/03/12 09:54:37;;;;;;;22.30;14.63;;;281.80;972.80;;;;;;5072411;28;20031;-56
2022/03/12 09:57:03;;;;;;;20.33;12.48;;;281.70;998.40;;;;;;5073192;28;20094;-56
2022/03/12 09:59:29;;;;;;;20.45;13.95;;;256.90;947.20;;;;;;5072953;28;20021;-55
2022/03/12 10:01:55;;;;;;;24.65;16.88;;;256.80;947.20;;;;;;5073181;28;20038;-55
2022/03/12 10:04:21;;;;;;;27.90;17.00;;;256.50;921.60;;;;;;5072907;28;20103;-58
2022/03/12 10:06:48;;;;;;;22.42;15.48;;;231.30;972.80;;;;;;5072747;28;20036;-55
2022/03/12 10:09:14;;;;;;;20.80;13.98;;;231.20;972.80;;;;;;5072882;28;20098;-55
2022/03/12 10:11:44;;;;;;;58.28;16.85;;;231.00;972.80;;;;;;5072642;28;20463;-55
2022/03/12 10:14:10;;;;;;;18.95;13.30;;;256.10;998.40;;;;;;5072775;28;20027;-55
2022/03/12 10:16:36;;;;;;;21.90;14.90;;;256.00;998.40;;;;;;5072686;28;20037;-56
2022/03/12 10:19:03;;;;;;;27.08;18.63;;;230.70;972.80;;;;;;5072784;28;20032;-56
2022/03/12 10:21:30;;;;;;;48.97;33.67;;;231.00;972.80;;;;;;5072744;28;20352;-55
2022/03/12 10:23:56;;;;;;;25.63;18.20;;;231.10;1024.00;;;;;;5072494;28;20054;-55
2022/03/12 10:26:22;;;;;;;20.67;14.75;;;230.90;1024.00;;;;;;5072717;28;20111;-57
2022/03/12 10:28:48;;;;;;;31.30;19.65;;;230.90;972.80;;;;;;5072246;28;20028;-55
2022/03/12 10:31:18;;;;;;;27.75;15.38;;;231.00;998.40;;;;;;5072522;28;20056;-56
2022/03/12 10:33:44;;;;;;;25.40;16.58;;;231.30;998.40;;;;;;5072531;28;20059;-56
2022/03/12 10:36:15;;;;;;;47.65;29.25;;;231.20;972.80;;;;;;5072222;28;20040;-55
2022/03/12 10:38:50;;;;;;;28.95;15.50;;;230.90;1024.00;;;;;;5073902;28;20467;-55
2022/03/12 10:41:17;;;;;;;39.35;24.17;;;231.00;998.40;;;;;;5073473;28;20051;-55
2022/03/12 10:43:48;;;;;;;24.80;16.48;;;230.90;998.40;;;;;;5073692;28;20035;-55
2022/03/12 10:46:28;;;;;;;29.60;18.20;;;230.60;998.40;;;;;;5072872;28;20244;-62
2022/03/12 10:48:58;;;;;;;32.67;17.75;;;230.60;998.40;;;;;;5073293;28;20154;-56
2022/03/12 10:51:29;;;;;;;36.22;22.00;;;230.40;1024.00;;;;;;5072765;28;20025;-55
2022/03/12 10:54:07;;;;;;;34.03;20.70;;;205.50;1075.20;;;;;;5073016;28;20425;-59
2022/03/12 10:56:54;;;;;;;34.15;19.92;;;205.20;1075.20;;;;;;5071858;28;20066;-59
2022/03/12 10:59:25;;;;;;;33.35;19.63;;;204.90;1100.80;;;;;;5072320;28;20035;-58
2022/03/12 11:01:53;;;;;;;29.45;17.75;;;205.20;1100.80;;;;;;5072522;28;20036;-55
2022/03/12 11:04:26;;;;;;;28.83;17.17;;;205.60;1100.80;;;;;;5071343;28;20029;-55
2022/03/12 11:06:54;;;;;;;29.17;17.80;;;205.30;1100.80;;;;;;5072051;28;20118;-55
2022/03/12 11:09:36;;;;;;;35.78;21.30;;;205.40;1100.80;;;;;;5071933;28;20116;-56
2022/03/12 11:12:04;;;;;;;29.75;18.92;;;205.60;1100.80;;;;;;5072297;28;20095;-58
2022/03/12 11:14:31;;;;;;;33.08;23.67;;;204.90;1100.80;;;;;;5071473;28;20025;-55
2022/03/12 11:16:58;;;;;;;26.15;16.48;;;180.10;1126.40;;;;;;5071489;28;20044;-56
2022/03/12 11:19:42;;;;;;;52.20;35.28;;;204.90;1126.40;;;;;;5071842;28;20382;-55
2022/03/12 11:22:13;;;;;;;51.20;31.67;;;204.80;1152.00;;;;;;5071502;28;20089;-56
2022/03/12 11:24:54;;;;;;;38.60;24.10;;;205.10;1203.20;;;;;;5071312;28;20027;-56
2022/03/12 11:27:35;;;;;;;35.72;25.83;;;205.00;1100.80;;;;;;5071704;28;20036;-56
2022/03/12 11:30:08;;;;;;;27.85;18.92;;;205.30;1100.80;;;;;;5070989;28;20025;-55
2022/03/12 11:32:36;;;;;;;35.47;22.27;;;180.10;1126.40;;;;;;5071346;28;20513;-57
2022/03/12 11:35:13;;;;;;;29.70;18.42;;;204.90;1100.80;;;;;;5071239;28;20029;-56
2022/03/12 11:37:41;;;;;;;26.48;15.63;;;205.00;1126.40;;;;;;5071232;28;20028;-56
2022/03/12 11:40:16;;;;;;;22.45;14.05;;;179.70;1126.40;;;;;;5071403;28;20082;-58
2022/03/12 11:42:44;;;;;;;25.23;16.27;;;;;;;;;;5071211;28;20061;-55
2022/03/12 11:45:16;;;;;;;29.13;18.75;;;205.00;1152.00;;;;;;5070911;28;20509;-55
2022/03/12 11:47:44;;;;;;;38.20;24.55;;;205.10;1126.40;;;;;;5071196;28;20032;-55
2022/03/12 11:50:24;;;;;;;23.25;14.75;;;205.30;1152.00;;;;;;5070931;28;20060;-56
2022/03/12 11:52:52;;;;;;;27.02;14.27;;;205.40;1126.40;;;;;;5070706;28;20017;-57
2022/03/12 11:55:22;;;;;;;47.58;29.15;;;205.50;1177.60;;;;;;5070695;28;20033;-54
2022/03/12 11:57:49;;;;;;;27.52;15.38;;;205.70;1203.20;;;;;;5070858;28;20033;-55
2022/03/12 12:00:22;;;;;;;81.45;52.60;;;230.40;1177.60;;;;;;5070797;28;20032;-55
2022/03/12 12:02:50;;;;;;;24.80;15.00;;;205.50;1126.40;;;;;;5070465;28;20024;-54
2022/03/12 12:05:17;;;;;;;27.33;17.73;;;205.00;1152.00;;;;;;5070756;28;20466;-55
2022/03/12 12:07:45;;;;;;;29.02;18.73;;;180.10;1152.00;;;;;;5070906;28;20024;-55
2022/03/12 12:10:14;;;;;;;47.90;23.67;;;205.00;1152.00;;;;;;5070404;28;20050;-55